Time;durP1;ratioP1;P1;durP2;ratioP2;P2;SDS_P1;SDS_P2;PMS_P1;PMS_P2;Temp;Humidity;BMP_temperature;BMP_pressure;BME280_temperature;BME280_humidity;BME280_pressure;Samples;Min_cycle;Max_cycle;Signal;HPM_P1;HPM_P2
2022/05/17 00:02:03;;;;;;;15.40;14.30;;;20.70;61.80;;;;;;5007098;28;20053;-79
2022/05/17 00:04:29;;;;;;;15.48;14.23;;;20.80;61.80;;;;;;4993038;28;20514;-79
2022/05/17 00:06:55;;;;;;;15.02;13.93;;;20.90;61.20;;;;;;4988329;28;20034;-79
2022/05/17 00:09:21;;;;;;;14.82;13.80;;;21.00;60.80;;;;;;5007409;28;20041;-79
2022/05/17 00:11:48;;;;;;;15.60;14.30;;;20.90;61.00;;;;;;5001236;28;20053;-79
2022/05/17 00:14:14;;;;;;;14.80;13.75;;;20.90;61.70;;;;;;4980783;28;20022;-79
2022/05/17 00:16:41;;;;;;;15.00;13.80;;;20.60;62.80;;;;;;5007823;28;20034;-79
2022/05/17 00:19:08;;;;;;;14.35;13.45;;;20.30;64.60;;;;;;4977230;28;20018;-79
2022/05/17 00:21:36;;;;;;;15.40;14.20;;;20.20;64.80;;;;;;4992301;28;20045;-79
2022/05/17 00:24:02;;;;;;;14.38;13.38;;;20.30;64.40;;;;;;5001967;28;20027;-79
2022/05/17 00:26:29;;;;;;;14.30;13.15;;;20.50;63.50;;;;;;5004861;28;20025;-79
2022/05/17 00:28:55;;;;;;;13.43;12.43;;;20.50;62.90;;;;;;5010339;28;20467;-79
2022/05/17 00:31:21;;;;;;;13.15;12.25;;;20.60;62.50;;;;;;4993025;28;20069;-82
2022/05/17 00:33:47;;;;;;;13.13;12.13;;;20.60;62.70;;;;;;4975478;28;20046;-79
2022/05/17 00:36:13;;;;;;;13.65;12.65;;;20.30;64.20;;;;;;5004053;28;20036;-79
2022/05/17 00:38:39;;;;;;;13.00;12.00;;;20.10;64.00;;;;;;5007082;28;20029;-79
2022/05/17 00:41:05;;;;;;;12.82;11.93;;;20.10;63.80;;;;;;5004645;28;20066;-79
2022/05/17 00:46:28;;;;;;;13.77;12.50;;;19.80;64.90;;;;;;5008940;28;20036;-79
2022/05/17 00:48:54;;;;;;;13.23;12.00;;;19.90;64.30;;;;;;4989906;28;20026;-79
2022/05/17 00:51:21;;;;;;;12.75;11.77;;;19.90;64.20;;;;;;5008234;28;20042;-81
2022/05/17 00:53:47;;;;;;;12.52;11.63;;;19.90;64.10;;;;;;4990613;28;20046;-79
2022/05/17 00:56:16;;;;;;;12.65;11.85;;;20.10;63.40;;;;;;5008096;28;20037;-81
2022/05/17 00:58:48;;;;;;;13.57;12.52;;;20.10;63.00;;;;;;4993334;28;20057;-78
2022/05/17 01:01:22;;;;;;;12.88;11.95;;;20.20;62.40;;;;;;5006065;28;20034;-79
2022/05/17 01:03:55;;;;;;;13.43;12.43;;;20.00;62.80;;;;;;5009530;28;20033;-79
2022/05/17 01:06:22;;;;;;;13.15;12.23;;;19.90;62.80;;;;;;5004450;28;20497;-79
2022/05/17 01:08:48;;;;;;;12.32;11.43;;;19.70;63.50;;;;;;5008376;28;20050;-79
2022/05/17 01:11:14;;;;;;;13.70;12.48;;;19.60;63.80;;;;;;5006488;28;20042;-79
2022/05/17 01:16:26;;;;;;;12.27;11.38;;;19.60;63.70;;;;;;5008772;28;20037;-79
2022/05/17 01:18:52;;;;;;;13.02;11.73;;;19.80;62.90;;;;;;5009604;28;20038;-81
2022/05/17 01:21:19;;;;;;;12.75;11.70;;;19.80;63.30;;;;;;4997308;28;20054;-79
2022/05/17 01:23:45;;;;;;;12.40;11.50;;;19.90;62.50;;;;;;4997765;28;20034;-79
2022/05/17 01:26:20;;;;;;;12.07;11.27;;;19.90;62.10;;;;;;5001544;28;20386;-79
2022/05/17 01:28:46;;;;;;;12.90;11.57;;;20.00;61.90;;;;;;4985108;28;20034;-79
2022/05/17 01:31:12;;;;;;;13.07;11.98;;;20.00;62.10;;;;;;5006786;28;20151;-79
2022/05/17 01:33:39;;;;;;;12.95;11.98;;;20.10;62.20;;;;;;4988061;28;20038;-79
2022/05/17 01:36:07;;;;;;;13.35;12.27;;;20.10;62.50;;;;;;4999429;28;20022;-79
2022/05/17 01:38:34;;;;;;;13.38;12.10;;;20.10;62.10;;;;;;4987112;28;20394;-79
2022/05/17 01:41:00;;;;;;;13.60;12.25;;;20.10;61.70;;;;;;5003742;28;20508;-79
2022/05/17 01:43:26;;;;;;;12.48;11.48;;;20.10;61.60;;;;;;4976461;28;20035;-79
2022/05/17 01:45:52;;;;;;;13.02;11.73;;;20.10;61.50;;;;;;4990440;28;20411;-79
2022/05/17 01:48:19;;;;;;;12.55;11.65;;;20.10;61.70;;;;;;5004454;28;20029;-79
2022/05/17 01:50:45;;;;;;;12.93;12.13;;;20.10;62.20;;;;;;5007500;28;20029;-79
2022/05/17 01:53:11;;;;;;;12.68;11.43;;;19.90;63.10;;;;;;5006045;28;20360;-79
2022/05/17 01:55:37;;;;;;;12.43;11.43;;;19.70;64.30;;;;;;4976861;28;20034;-79
2022/05/17 01:58:03;;;;;;;14.02;11.68;;;19.50;64.80;;;;;;5011760;28;20034;-79
2022/05/17 02:00:30;;;;;;;13.10;11.75;;;19.40;65.00;;;;;;4980405;28;20045;-79
2022/05/17 02:02:56;;;;;;;12.38;10.50;;;19.50;64.60;;;;;;5008516;28;20022;-79
2022/05/17 02:05:23;;;;;;;11.13;10.32;;;19.20;65.80;;;;;;5003515;28;20506;-79
2022/05/17 02:07:50;;;;;;;10.23;9.43;;;18.90;66.80;;;;;;5003590;28;20030;-79
2022/05/17 02:10:25;;;;;;;11.20;10.15;;;18.80;67.50;;;;;;4974367;28;20043;-79
2022/05/17 02:12:55;;;;;;;11.48;10.40;;;18.80;67.50;;;;;;5011824;28;20042;-79
2022/05/17 02:15:21;;;;;;;11.15;10.23;;;18.90;66.60;;;;;;4991915;28;20029;-79
2022/05/17 02:17:47;;;;;;;10.95;9.98;;;18.90;66.50;;;;;;5010530;28;20403;-79
2022/05/17 02:20:13;;;;;;;11.18;10.40;;;18.80;66.90;;;;;;5009263;28;20361;-79
2022/05/17 02:22:39;;;;;;;11.73;10.55;;;18.80;66.50;;;;;;5009655;28;20026;-79
2022/05/17 02:25:07;;;;;;;11.25;10.30;;;18.80;65.90;;;;;;5009994;28;20030;-79
2022/05/17 02:27:33;;;;;;;11.60;10.55;;;18.80;66.00;;;;;;5008218;28;20471;-79
2022/05/17 02:29:59;;;;;;;11.20;10.30;;;18.80;66.00;;;;;;5006415;28;20053;-79
2022/05/17 02:32:25;;;;;;;10.52;9.68;;;18.90;65.40;;;;;;5006334;28;20042;-79
2022/05/17 02:34:51;;;;;;;11.70;10.70;;;19.00;64.80;;;;;;4995954;28;20041;-79
2022/05/17 02:37:17;;;;;;;11.90;10.70;;;19.00;64.50;;;;;;4994213;28;20065;-79
2022/05/17 02:39:45;;;;;;;11.02;10.15;;;18.90;64.80;;;;;;4991994;28;20038;-79
2022/05/17 02:42:11;;;;;;;11.30;10.20;;;18.80;65.50;;;;;;5011362;28;20037;-79
2022/05/17 02:44:37;;;;;;;11.05;10.23;;;19.00;64.70;;;;;;5008179;28;20037;-79
2022/05/17 02:47:04;;;;;;;11.73;10.63;;;19.00;64.60;;;;;;5008484;28;20038;-78
2022/05/17 02:49:31;;;;;;;11.30;10.27;;;19.00;65.20;;;;;;5001179;28;20038;-79
2022/05/17 02:52:01;;;;;;;13.10;11.07;;;18.80;65.40;;;;;;5013093;28;20057;-79
2022/05/17 02:54:27;;;;;;;11.70;10.80;;;18.90;64.80;;;;;;5009674;28;20036;-79
2022/05/17 02:56:53;;;;;;;11.50;10.57;;;19.00;64.40;;;;;;5002998;28;20634;-79
2022/05/17 02:59:20;;;;;;;11.50;10.57;;;19.10;63.90;;;;;;4998881;28;20038;-79
2022/05/17 03:01:46;;;;;;;12.18;10.48;;;19.10;63.90;;;;;;5008144;28;20364;-79
2022/05/17 03:04:13;;;;;;;11.65;10.68;;;19.10;64.30;;;;;;5008935;28;20022;-79
2022/05/17 03:06:43;;;;;;;11.18;10.15;;;19.10;63.90;;;;;;5004259;28;20025;-79
2022/05/17 03:09:09;;;;;;;11.55;10.38;;;19.10;63.40;;;;;;5007354;28;20379;-77
2022/05/17 03:11:36;;;;;;;11.00;10.10;;;19.10;64.30;;;;;;5007280;28;20055;-75
2022/05/17 03:14:02;;;;;;;11.13;10.18;;;19.10;63.50;;;;;;5008935;28;20030;-76
2022/05/17 03:16:30;;;;;;;11.55;10.63;;;19.10;63.30;;;;;;5004767;28;20388;-75
2022/05/17 03:18:57;;;;;;;11.20;10.40;;;19.20;63.30;;;;;;5010496;28;20553;-75
2022/05/17 03:21:23;;;;;;;10.85;10.00;;;19.10;63.10;;;;;;5009767;28;20033;-75
2022/05/17 03:23:49;;;;;;;10.75;9.75;;;19.10;63.40;;;;;;5004015;28;20030;-75
2022/05/17 03:26:16;;;;;;;10.90;9.95;;;19.10;63.60;;;;;;5004269;28;20030;-75
2022/05/17 03:28:42;;;;;;;10.63;9.68;;;19.00;64.00;;;;;;5005391;28;20037;-75
2022/05/17 03:31:11;;;;;;;10.88;9.85;;;19.00;64.00;;;;;;5005517;28;20041;-75
2022/05/17 03:33:38;;;;;;;10.18;9.43;;;19.00;64.10;;;;;;5009414;28;20038;-76
2022/05/17 03:36:05;;;;;;;10.90;10.00;;;19.00;64.20;;;;;;5004245;28;20423;-75
2022/05/17 03:38:31;;;;;;;12.35;10.07;;;19.00;64.10;;;;;;5005268;28;20499;-75
2022/05/17 03:41:00;;;;;;;10.80;9.90;;;19.00;64.10;;;;;;4981708;28;20034;-74
2022/05/17 03:43:27;;;;;;;10.80;9.88;;;19.00;64.00;;;;;;5009698;28;20030;-75
2022/05/17 03:45:54;;;;;;;10.70;9.70;;;19.00;63.80;;;;;;5003057;28;20038;-76
2022/05/17 03:48:20;;;;;;;11.40;10.25;;;19.00;63.80;;;;;;4982298;28;20043;-75
2022/05/17 03:50:46;;;;;;;11.18;10.10;;;18.90;63.90;;;;;;5001073;28;20040;-77
2022/05/17 03:53:13;;;;;;;10.63;9.73;;;18.90;63.90;;;;;;4987629;28;20045;-78
2022/05/17 03:55:39;;;;;;;10.93;10.00;;;18.80;63.90;;;;;;4979340;28;20395;-78
2022/05/17 03:58:05;;;;;;;10.95;10.10;;;18.80;64.10;;;;;;5006260;28;20030;-77
2022/05/17 04:00:31;;;;;;;10.30;9.50;;;18.80;64.00;;;;;;4993412;28;20414;-77
2022/05/17 04:02:58;;;;;;;10.57;9.75;;;18.80;64.00;;;;;;5010811;28;20038;-77
2022/05/17 04:05:24;;;;;;;14.07;10.02;;;18.70;64.10;;;;;;5009909;28;20033;-77
2022/05/17 04:07:50;;;;;;;10.32;9.55;;;18.70;64.20;;;;;;5006726;28;20037;-77
2022/05/17 04:10:16;;;;;;;19.27;15.38;;;18.60;64.30;;;;;;5006281;28;20051;-77
2022/05/17 04:12:43;;;;;;;12.32;11.15;;;18.60;64.40;;;;;;4997972;28;20479;-77
2022/05/17 04:15:11;;;;;;;11.38;10.20;;;18.60;64.30;;;;;;5004556;28;20022;-77
2022/05/17 04:17:38;;;;;;;14.27;10.38;;;18.60;64.40;;;;;;5005740;28;20018;-78
2022/05/17 04:20:04;;;;;;;10.77;9.93;;;18.60;64.40;;;;;;5007076;28;20022;-77
2022/05/17 04:22:30;;;;;;;11.27;10.23;;;18.60;64.40;;;;;;5007432;28;20022;-77
2022/05/17 04:24:57;;;;;;;10.65;9.55;;;18.50;64.70;;;;;;5008825;28;20029;-77
2022/05/17 04:27:23;;;;;;;11.00;10.00;;;18.50;64.90;;;;;;5004813;28;20034;-78
2022/05/17 04:29:50;;;;;;;10.95;9.90;;;18.50;65.10;;;;;;5008324;28;20030;-78
2022/05/17 04:32:16;;;;;;;10.50;9.70;;;18.50;65.10;;;;;;5008267;28;20049;-78
2022/05/17 04:34:42;;;;;;;10.40;9.60;;;18.50;65.50;;;;;;5006705;28;20475;-77
2022/05/17 04:37:08;;;;;;;10.43;9.63;;;18.40;65.40;;;;;;5002184;28;20041;-77
2022/05/17 04:39:34;;;;;;;11.07;9.68;;;18.40;65.50;;;;;;5008556;28;20033;-77
2022/05/17 04:42:00;;;;;;;11.20;10.10;;;18.40;65.50;;;;;;5005712;28;20042;-77
2022/05/17 04:44:27;;;;;;;10.63;9.57;;;18.40;65.90;;;;;;5004434;28;20026;-77
2022/05/17 04:46:53;;;;;;;11.13;9.90;;;18.40;65.80;;;;;;4991098;28;20061;-77
2022/05/17 04:49:19;;;;;;;10.70;9.68;;;18.40;65.90;;;;;;4992593;28;20049;-77
2022/05/17 04:51:46;;;;;;;10.25;9.30;;;18.40;66.50;;;;;;5003678;28;20050;-77
2022/05/17 04:54:12;;;;;;;10.73;9.80;;;18.20;68.50;;;;;;5009903;28;20499;-79
2022/05/17 04:56:38;;;;;;;10.30;9.38;;;17.80;69.80;;;;;;4991769;28;20053;-76
2022/05/17 04:59:04;;;;;;;9.57;8.75;;;17.50;71.30;;;;;;5006637;28;20664;-77
2022/05/17 05:01:31;;;;;;;10.15;8.95;;;17.20;72.70;;;;;;5008308;28;20049;-77
2022/05/17 05:03:58;;;;;;;9.95;8.93;;;17.20;72.90;;;;;;5006423;28;20030;-77
2022/05/17 05:06:27;;;;;;;10.38;9.43;;;17.30;72.50;;;;;;5007745;28;20442;-79
2022/05/17 05:08:53;;;;;;;13.45;9.90;;;17.40;71.70;;;;;;5001365;28;20058;-77
2022/05/17 05:11:19;;;;;;;10.25;9.25;;;17.50;71.40;;;;;;5001815;28;20498;-77
2022/05/17 05:13:45;;;;;;;10.60;9.30;;;17.40;71.50;;;;;;4993965;28;20045;-77
2022/05/17 05:16:12;;;;;;;9.90;8.90;;;17.50;71.50;;;;;;5004283;28;20030;-77
2022/05/17 05:18:38;;;;;;;10.60;9.52;;;17.70;71.10;;;;;;5009897;28;20419;-78
2022/05/17 05:21:12;;;;;;;10.95;9.90;;;17.80;70.70;;;;;;5001998;28;20406;-77
2022/05/17 05:23:40;;;;;;;11.07;10.18;;;17.90;70.80;;;;;;5008628;28;20022;-79
2022/05/17 05:26:06;;;;;;;12.20;11.00;;;18.10;70.10;;;;;;5000812;28;20042;-78
2022/05/17 05:28:33;;;;;;;13.10;11.48;;;18.30;69.20;;;;;;5006837;28;20514;-77
2022/05/17 05:30:59;;;;;;;13.18;11.98;;;18.40;68.40;;;;;;4994055;28;20035;-79
2022/05/17 05:33:25;;;;;;;14.00;12.90;;;18.40;68.30;;;;;;5007640;28;20402;-77
2022/05/17 05:35:52;;;;;;;13.57;12.32;;;18.50;68.40;;;;;;5012851;28;20026;-76
2022/05/17 05:38:18;;;;;;;13.70;12.75;;;18.70;68.30;;;;;;4992128;28;20046;-77
2022/05/17 05:40:44;;;;;;;13.10;12.20;;;18.90;67.20;;;;;;5007642;28;20045;-74
2022/05/17 05:43:10;;;;;;;14.30;13.10;;;19.00;66.70;;;;;;5012639;28;20026;-74
2022/05/17 05:45:36;;;;;;;14.07;12.88;;;19.10;66.30;;;;;;5006119;28;20048;-76
2022/05/17 05:48:03;;;;;;;15.27;13.90;;;19.20;66.00;;;;;;4996133;28;20399;-77
2022/05/17 05:50:29;;;;;;;14.77;13.30;;;19.30;66.40;;;;;;5007810;28;20034;-78
2022/05/17 05:53:05;;;;;;;14.57;13.15;;;19.40;66.00;;;;;;4993989;28;20046;-74
2022/05/17 05:55:31;;;;;;;14.40;13.10;;;19.60;65.50;;;;;;4998610;28;20034;-76
2022/05/17 05:57:57;;;;;;;14.73;13.45;;;19.70;65.20;;;;;;5012123;28;20034;-76
2022/05/17 06:00:24;;;;;;;14.95;13.75;;;19.80;64.70;;;;;;5007951;28;20498;-77
2022/05/17 06:02:50;;;;;;;16.30;13.98;;;19.90;64.60;;;;;;5007963;28;20037;-78
2022/05/17 06:05:18;;;;;;;15.32;14.00;;;19.90;64.90;;;;;;4992701;28;20487;-80
2022/05/17 06:07:44;;;;;;;15.20;13.93;;;20.10;64.50;;;;;;5010129;28;20391;-78
2022/05/17 06:10:14;;;;;;;15.25;13.93;;;20.20;63.60;;;;;;4994186;28;20042;-79
2022/05/17 06:12:40;;;;;;;15.02;13.98;;;20.30;63.40;;;;;;4998563;28;20050;-80
2022/05/17 06:15:07;;;;;;;15.75;14.52;;;20.50;63.40;;;;;;5008302;28;20399;-78
2022/05/17 06:17:33;;;;;;;15.98;14.40;;;20.60;62.50;;;;;;5007353;28;20026;-79
2022/05/17 06:20:00;;;;;;;15.13;13.93;;;20.60;62.10;;;;;;4990770;28;20050;-80
2022/05/17 06:22:26;;;;;;;15.57;14.30;;;20.70;62.00;;;;;;4978493;28;20045;-81
2022/05/17 06:24:52;;;;;;;15.68;14.38;;;20.90;61.00;;;;;;5010668;28;20026;-79
2022/05/17 06:27:18;;;;;;;14.68;13.57;;;20.90;61.00;;;;;;4985930;28;20038;-79
2022/05/17 06:29:45;;;;;;;15.13;14.00;;;21.10;59.90;;;;;;4983404;28;20038;-81
2022/05/17 06:32:14;;;;;;;15.85;14.27;;;21.10;60.00;;;;;;5000884;28;20034;-81
2022/05/17 06:34:41;;;;;;;14.88;13.63;;;21.20;60.00;;;;;;5010706;28;20490;-80
2022/05/17 06:37:08;;;;;;;16.00;14.57;;;21.40;60.40;;;;;;5012156;28;20034;-79
2022/05/17 06:39:34;;;;;;;16.02;14.40;;;21.60;59.60;;;;;;4996895;28;20034;-77
2022/05/17 06:42:00;;;;;;;15.63;14.50;;;21.80;59.10;;;;;;5005326;28;20049;-79
2022/05/17 06:44:28;;;;;;;15.13;13.98;;;21.90;58.80;;;;;;5005256;28;20357;-80
2022/05/17 06:46:54;;;;;;;15.48;14.27;;;21.80;58.40;;;;;;5005123;28;20030;-78
2022/05/17 06:49:21;;;;;;;16.40;14.98;;;21.80;58.70;;;;;;4996422;28;20033;-80
2022/05/17 06:51:48;;;;;;;16.23;14.93;;;21.80;58.60;;;;;;4994904;28;20030;-78
2022/05/17 06:54:14;;;;;;;15.02;14.02;;;21.70;58.40;;;;;;5007970;28;20041;-78
2022/05/17 06:56:40;;;;;;;15.98;14.88;;;21.90;58.60;;;;;;5005153;28;20408;-78
2022/05/17 06:59:07;;;;;;;16.50;15.32;;;21.90;58.20;;;;;;5000498;28;20041;-78
2022/05/17 07:01:33;;;;;;;17.08;15.95;;;22.10;58.00;;;;;;5009473;28;20044;-78
2022/05/17 07:03:59;;;;;;;16.13;15.02;;;22.20;57.30;;;;;;5011541;28;20376;-84
2022/05/17 07:06:26;;;;;;;16.45;15.35;;;22.20;57.50;;;;;;4999846;28;20053;-84
2022/05/17 07:08:52;;;;;;;17.42;16.33;;;22.30;56.80;;;;;;5003731;28;20034;-84
2022/05/17 07:14:03;;;;;;;16.73;15.52;;;22.50;56.60;;;;;;4998641;28;20049;-82
2022/05/17 07:16:29;;;;;;;17.05;16.00;;;22.70;56.50;;;;;;5009168;28;20034;-81
2022/05/17 07:18:55;;;;;;;17.55;16.15;;;22.90;56.10;;;;;;4989900;28;20069;-79
2022/05/17 07:21:21;;;;;;;18.33;16.98;;;23.00;55.20;;;;;;5006573;28;20034;-82
2022/05/17 07:23:47;;;;;;;16.67;15.68;;;22.90;54.90;;;;;;5008467;28;20038;-82
2022/05/17 07:26:13;;;;;;;16.63;15.43;;;22.80;55.60;;;;;;4990504;28;20038;-80
2022/05/17 07:28:45;;;;;;;27.58;17.17;;;22.90;56.00;;;;;;4988726;28;20034;-77
2022/05/17 07:31:12;;;;;;;16.20;15.20;;;23.00;55.10;;;;;;5024710;28;20037;-77
2022/05/17 07:33:38;;;;;;;17.35;15.85;;;23.10;55.40;;;;;;5005851;28;20045;-79
2022/05/17 07:36:05;;;;;;;17.60;16.30;;;22.90;55.30;;;;;;5008910;28;20049;-78
2022/05/17 07:38:31;;;;;;;16.98;15.98;;;23.20;55.60;;;;;;5005782;28;20368;-79
2022/05/17 07:40:57;;;;;;;17.15;15.80;;;23.50;54.80;;;;;;4994632;28;20049;-77
2022/05/17 07:43:24;;;;;;;17.60;16.27;;;23.60;54.10;;;;;;5010669;28;20030;-78
2022/05/17 07:45:50;;;;;;;16.63;15.73;;;23.60;54.40;;;;;;4993722;28;20041;-77
2022/05/17 07:48:18;;;;;;;18.13;16.85;;;23.50;54.50;;;;;;4994049;28;20042;-76
2022/05/17 07:50:44;;;;;;;17.38;16.10;;;23.70;54.00;;;;;;5010277;28;20387;-81
2022/05/17 07:53:11;;;;;;;19.55;18.30;;;23.70;54.20;;;;;;5008932;28;20038;-79
2022/05/17 07:55:38;;;;;;;17.35;16.25;;;23.80;53.90;;;;;;5010039;28;20018;-79
2022/05/17 07:58:06;;;;;;;17.52;16.52;;;23.70;54.00;;;;;;5010922;28;20092;-76
2022/05/17 08:00:32;;;;;;;18.23;16.38;;;23.70;54.00;;;;;;5011734;28;20038;-77
2022/05/17 08:02:59;;;;;;;18.30;17.38;;;23.90;53.90;;;;;;5010095;28;20041;-77
2022/05/17 08:05:26;;;;;;;17.70;16.50;;;24.00;52.60;;;;;;4995382;28;20045;-78
2022/05/17 08:07:53;;;;;;;17.60;16.48;;;24.00;53.00;;;;;;5013414;28;20042;-78
2022/05/17 08:10:19;;;;;;;18.35;16.83;;;24.20;52.40;;;;;;5003312;28;20053;-79
2022/05/17 08:12:46;;;;;;;18.80;17.60;;;24.20;51.80;;;;;;5008249;28;20363;-76
2022/05/17 08:15:12;;;;;;;18.77;17.58;;;24.30;52.00;;;;;;4994014;28;20053;-77
2022/05/17 08:17:38;;;;;;;18.05;16.70;;;24.40;51.80;;;;;;4990391;28;20030;-76
2022/05/17 08:20:09;;;;;;;21.00;19.38;;;24.30;52.40;;;;;;5006420;28;20022;-77
2022/05/17 08:22:39;;;;;;;17.85;16.90;;;24.40;52.10;;;;;;4994788;28;20037;-77
2022/05/17 08:27:51;;;;;;;18.60;17.45;;;24.50;52.00;;;;;;5010573;28;20284;-79
2022/05/17 08:30:19;;;;;;;19.02;17.83;;;24.60;51.70;;;;;;5007539;28;20048;-76
2022/05/17 08:35:56;;;;;;;19.15;17.85;;;24.90;51.20;;;;;;5008117;28;20053;-79
2022/05/17 08:38:28;;;;;;;19.92;18.73;;;25.00;50.80;;;;;;5002680;28;20042;-80
2022/05/17 08:41:05;;;;;;;18.80;17.70;;;25.20;50.10;;;;;;5009436;28;20041;-78
2022/05/17 08:44:02;;;;;;;20.02;18.75;;;25.30;49.60;;;;;;4995315;28;20033;-78
2022/05/17 08:46:56;;;;;;;19.90;18.58;;;25.50;49.50;;;;;;5001695;28;20045;-78
2022/05/17 08:49:23;;;;;;;23.08;21.48;;;25.50;49.40;;;;;;5007435;28;20049;-80
2022/05/17 08:52:07;;;;;;;19.50;18.27;;;25.60;49.30;;;;;;5009998;28;20395;-78
2022/05/17 08:54:41;;;;;;;20.05;18.85;;;25.50;49.40;;;;;;5009582;28;20038;-79
2022/05/17 08:57:39;;;;;;;21.25;19.77;;;25.70;48.80;;;;;;4993044;28;20387;-78
2022/05/17 09:00:19;;;;;;;21.40;19.95;;;25.70;48.80;;;;;;5007988;28;20466;-76
2022/05/17 09:02:45;;;;;;;22.35;20.83;;;25.80;49.00;;;;;;5007985;28;20036;-76
2022/05/17 09:05:17;;;;;;;22.13;21.00;;;25.80;48.90;;;;;;5007119;28;20034;-76
2022/05/17 09:07:50;;;;;;;23.23;21.83;;;26.00;48.40;;;;;;5009735;28;20033;-76
2022/05/17 09:10:38;;;;;;;21.90;20.70;;;26.10;48.80;;;;;;5009112;28;20483;-76
2022/05/17 09:13:10;;;;;;;21.20;20.00;;;26.30;48.30;;;;;;5002640;28;20050;-76
2022/05/17 09:15:36;;;;;;;22.95;21.55;;;26.40;48.20;;;;;;5009027;28;20037;-78
2022/05/17 09:18:10;;;;;;;23.67;22.27;;;26.60;47.80;;;;;;5008897;28;20053;-78
2022/05/17 09:20:37;;;;;;;24.10;22.75;;;26.70;48.00;;;;;;4973293;28;20042;-78
2022/05/17 09:23:03;;;;;;;23.55;22.25;;;26.80;46.70;;;;;;5007076;28;20045;-78
2022/05/17 09:26:04;;;;;;;24.58;22.80;;;26.70;47.10;;;;;;4993834;28;20041;-79
2022/05/17 09:28:47;;;;;;;;;;;27.00;46.60;;;;;;5005500;28;20046;-77
2022/05/17 09:31:17;;;;;;;25.08;23.35;;;27.20;46.60;;;;;;5006012;28;19913;-78
2022/05/17 09:33:43;;;;;;;27.42;25.20;;;27.20;45.90;;;;;;5011109;28;20038;-77
2022/05/17 09:36:19;;;;;;;27.42;25.73;;;27.30;46.20;;;;;;5001646;28;20025;-80
2022/05/17 09:38:47;;;;;;;1999.90;999.90;;;27.40;45.80;;;;;;4991808;28;20049;-78
2022/05/17 09:41:14;;;;;;;1999.90;999.90;;;27.50;45.10;;;;;;5007124;28;20064;-77
2022/05/17 09:43:49;;;;;;;1999.90;999.90;;;27.60;45.10;;;;;;5009404;28;20033;-77
2022/05/17 09:46:16;;;;;;;1999.90;999.90;;;27.80;45.10;;;;;;5008382;28;20042;-77
2022/05/17 09:54:38;;;;;;;1999.90;999.90;;;27.90;45.40;;;;;;5013671;28;20415;-77
2022/05/17 09:57:29;;;;;;;1999.90;999.90;;;28.30;44.40;;;;;;5005312;28;20022;-78
2022/05/17 10:00:12;;;;;;;1999.90;999.90;;;28.50;43.30;;;;;;5006897;28;20403;-86
2022/05/17 10:02:48;;;;;;;1999.90;999.90;;;28.70;43.60;;;;;;4992343;28;20049;-81
2022/05/17 10:05:26;;;;;;;1999.90;999.90;;;28.60;44.00;;;;;;5001049;28;20018;-81
2022/05/17 10:07:58;;;;;;;1999.90;999.90;;;28.70;43.10;;;;;;5006677;28;20033;-80
2022/05/17 10:10:29;;;;;;;1999.90;999.90;;;28.70;43.20;;;;;;5008226;28;20042;-80
2022/05/17 10:13:21;;;;;;;1999.90;999.90;;;28.90;43.30;;;;;;5010961;28;20042;-84
2022/05/17 10:15:50;;;;;;;1999.90;999.90;;;28.90;42.70;;;;;;5008542;28;20491;-80
2022/05/17 10:18:41;;;;;;;1999.90;999.90;;;28.90;43.10;;;;;;4990050;28;20042;-80
2022/05/17 10:21:34;;;;;;;1999.90;999.90;;;28.90;42.90;;;;;;5010163;28;20045;-80
2022/05/17 10:24:04;;;;;;;1999.90;999.90;;;28.90;43.00;;;;;;5011479;28;20505;-80
2022/05/17 10:26:34;;;;;;;1999.90;999.90;;;28.80;43.10;;;;;;5011735;28;20041;-79
2022/05/17 10:29:36;;;;;;;1999.90;999.90;;;29.00;42.30;;;;;;5010251;28;20034;-79
2022/05/17 10:32:25;;;;;;;1999.90;999.90;;;29.10;41.30;;;;;;5007427;28;20497;-80
2022/05/17 10:34:57;;;;;;;1999.90;999.90;;;29.30;41.30;;;;;;5009159;28;20045;-79
2022/05/17 10:37:33;;;;;;;1999.90;999.90;;;29.40;40.50;;;;;;5009706;28;20052;-80
2022/05/17 10:40:08;;;;;;;1999.90;999.90;;;29.20;40.10;;;;;;5002429;28;20034;-79
2022/05/17 10:42:34;;;;;;;1999.90;999.90;;;29.20;40.70;;;;;;4991670;28;20026;-81
2022/05/17 10:45:00;;;;;;;1999.90;999.90;;;29.30;41.10;;;;;;5004251;28;20037;-81
2022/05/17 10:47:47;;;;;;;1999.90;999.90;;;29.30;41.10;;;;;;5009072;28;20045;-82
2022/05/17 10:50:21;;;;;;;1999.90;999.90;;;29.50;39.90;;;;;;4995982;28;20383;-84
2022/05/17 10:53:06;;;;;;;1999.90;999.90;;;29.40;39.40;;;;;;4989928;28;20046;-80
2022/05/17 10:55:47;;;;;;;1999.90;999.90;;;29.40;39.50;;;;;;5008533;28;20515;-85
2022/05/17 10:58:39;;;;;;;1999.90;999.90;;;29.70;40.20;;;;;;5008925;28;20030;-82
2022/05/17 11:01:11;;;;;;;1999.90;999.90;;;29.90;40.00;;;;;;5009886;28;20034;-81
2022/05/17 11:03:50;;;;;;;1999.90;999.90;;;30.10;39.50;;;;;;4995124;28;20045;-81
2022/05/17 11:06:25;;;;;;;1999.90;999.90;;;30.20;39.50;;;;;;5007742;28;20050;-80
2022/05/17 11:08:58;;;;;;;1999.90;999.90;;;30.40;38.00;;;;;;5008312;28;20498;-83
2022/05/17 11:11:37;;;;;;;1999.90;999.90;;;30.50;37.60;;;;;;5010388;28;20029;-83
2022/05/17 11:14:07;;;;;;;1999.90;999.90;;;30.50;36.50;;;;;;5008505;28;20037;-84
2022/05/17 11:16:40;;;;;;;;;;;30.70;37.00;;;;;;5009781;28;20031;-82
2022/05/17 11:19:21;;;;;;;1999.90;999.90;;;30.60;36.40;;;;;;5010847;28;19937;-81
2022/05/17 11:21:54;;;;;;;1999.90;999.90;;;30.60;36.80;;;;;;5011436;28;20022;-79
2022/05/17 11:24:43;;;;;;;1999.90;999.90;;;30.60;36.50;;;;;;5008972;28;20029;-81
2022/05/17 11:27:51;;;;;;;1999.90;999.90;;;30.80;36.70;;;;;;5009110;28;20053;-80
2022/05/17 11:30:34;;;;;;;1999.90;999.90;;;30.40;37.20;;;;;;5008707;28;20030;-80
2022/05/17 11:33:06;;;;;;;1999.90;999.90;;;29.80;37.40;;;;;;5007355;28;20041;-79
2022/05/17 11:35:33;;;;;;;1999.90;999.90;;;29.80;38.40;;;;;;5010423;28;20065;-80
2022/05/17 11:37:59;;;;;;;1999.90;999.90;;;30.00;37.90;;;;;;5010152;28;20045;-80
2022/05/17 11:40:46;;;;;;;1999.90;999.90;;;29.90;38.20;;;;;;5008119;28;20046;-80
2022/05/17 11:45:57;;;;;;;1999.90;999.90;;;30.00;37.90;;;;;;5012608;28;20502;-79
2022/05/17 11:48:24;;;;;;;1999.90;999.90;;;30.10;38.20;;;;;;4993678;28;20038;-79
2022/05/17 11:51:01;;;;;;;1999.90;999.90;;;30.10;38.70;;;;;;4992618;28;20410;-77
2022/05/17 11:53:27;;;;;;;1999.90;999.90;;;30.20;38.20;;;;;;5007048;28;20065;-77
2022/05/17 11:56:15;;;;;;;1999.90;999.90;;;30.40;37.80;;;;;;5007528;28;20046;-78
2022/05/17 11:58:46;;;;;;;1999.90;999.90;;;30.50;37.40;;;;;;5008147;28;20034;-78
2022/05/17 12:01:31;;;;;;;1999.90;999.90;;;30.50;37.10;;;;;;5009390;28;20030;-78
2022/05/17 12:04:17;;;;;;;1999.90;999.90;;;30.30;37.40;;;;;;5003374;28;20467;-78
2022/05/17 12:06:53;;;;;;;1999.90;999.90;;;30.40;37.50;;;;;;4994710;28;20061;-78
2022/05/17 12:09:30;;;;;;;1999.90;999.90;;;30.60;37.20;;;;;;5010352;28;20513;-77
2022/05/17 12:12:27;;;;;;;1999.90;999.90;;;30.90;37.20;;;;;;5004198;28;20041;-77
2022/05/17 12:15:12;;;;;;;1999.90;999.90;;;31.20;37.00;;;;;;5009759;28;20041;-78
2022/05/17 12:17:44;;;;;;;1999.90;999.90;;;31.50;35.20;;;;;;5001884;28;20038;-78
2022/05/17 12:20:50;;;;;;;1999.90;999.90;;;31.30;35.20;;;;;;5008995;28;20029;-77
2022/05/17 12:23:18;;;;;;;1999.90;999.90;;;31.10;35.00;;;;;;4989371;28;20048;-78
2022/05/17 12:26:35;;;;;;;1999.90;999.90;;;31.20;35.60;;;;;;5009095;28;20032;-77
2022/05/17 12:30:53;;;;;;;1999.90;999.90;;;31.40;34.60;;;;;;5006084;28;20491;-78
2022/05/17 12:31:47;;;;;;;1999.90;999.90;;;31.40;35.10;;;;;;4980102;28;20576;-77
2022/05/17 12:34:13;;;;;;;1999.90;999.90;;;31.50;34.90;;;;;;4967768;28;20415;-81
2022/05/17 12:36:39;;;;;;;1999.90;999.90;;;31.30;34.50;;;;;;4990056;28;20030;-83
2022/05/17 12:45:00;;;;;;;1999.90;999.90;;;31.00;35.90;;;;;;4968734;28;20043;-83
2022/05/17 12:47:32;;;;;;;1999.90;999.90;;;31.00;35.60;;;;;;4919600;28;20046;-83
2022/05/17 12:49:58;;;;;;;1999.90;999.90;;;31.00;35.70;;;;;;4950177;29;20038;-82
2022/05/17 12:52:31;;;;;;;1999.90;999.90;;;31.00;36.30;;;;;;4953704;28;20042;-83
2022/05/17 12:55:02;;;;;;;1999.90;999.90;;;31.10;36.40;;;;;;4950671;28;20063;-83
2022/05/17 12:57:32;;;;;;;1999.90;999.90;;;31.40;35.30;;;;;;4953776;28;20096;-83
2022/05/17 13:00:31;;;;;;;1999.90;999.90;;;31.30;35.70;;;;;;4927500;29;20402;-82
2022/05/17 13:03:02;;;;;;;1999.90;999.90;;;31.40;35.10;;;;;;4927500;29;20143;-83
2022/05/17 13:06:01;;;;;;;1999.90;999.90;;;31.40;35.00;;;;;;4913383;29;20566;-82